createdAt,value
2023-02-15T00:02:04.291Z,18.83
2023-02-15T00:04:50.039Z,18.67
2023-02-15T00:07:18.790Z,22.83
2023-02-15T00:09:49.189Z,19.33
2023-02-15T00:12:17.298Z,18.30
2023-02-15T00:14:44.464Z,17.60
2023-02-15T00:17:12.015Z,19.33
2023-02-15T00:19:39.330Z,17.47
2023-02-15T00:22:06.469Z,18.20
2023-02-15T00:24:34.044Z,18.77
2023-02-15T00:27:01.104Z,17.67
2023-02-15T00:29:29.059Z,17.53
2023-02-15T00:31:56.265Z,22.67
2023-02-15T00:34:24.666Z,19.50
2023-02-15T00:36:52.105Z,19.07
2023-02-15T00:39:19.382Z,20.97
2023-02-15T00:41:47.176Z,18.83
2023-02-15T00:44:14.846Z,18.33
2023-02-15T00:46:41.956Z,18.53
2023-02-15T00:49:09.079Z,19.07
2023-02-15T00:51:36.173Z,18.07
2023-02-15T00:54:03.264Z,18.80
2023-02-15T00:56:30.388Z,20.60
2023-02-15T00:58:57.601Z,20.43
2023-02-15T01:01:24.877Z,19.23
2023-02-15T01:03:52.151Z,19.10
2023-02-15T01:06:19.771Z,19.83
2023-02-15T01:08:47.352Z,18.70
2023-02-15T01:11:24.638Z,18.57
2023-02-15T01:13:53.293Z,20.33
2023-02-15T01:16:20.840Z,19.03
2023-02-15T01:18:48.400Z,17.87
2023-02-15T01:21:16.685Z,18.80
2023-02-15T01:23:44.138Z,19.13
2023-02-15T01:26:11.022Z,19.53
2023-02-15T01:28:38.417Z,19.43
2023-02-15T01:31:09.212Z,17.90
2023-02-15T01:33:37.076Z,20.60
2023-02-15T01:36:04.740Z,18.80
2023-02-15T01:38:32.000Z,19.27
2023-02-15T01:41:19.080Z,20.20
2023-02-15T01:43:48.284Z,20.97
2023-02-15T01:46:17.726Z,18.43
2023-02-15T01:48:54.039Z,18.77
2023-02-15T01:51:23.759Z,19.33
2023-02-15T01:53:55.486Z,20.30
2023-02-15T01:56:25.019Z,18.30
2023-02-15T01:58:53.446Z,20.60
2023-02-15T02:01:21.150Z,20.67
2023-02-15T02:03:48.308Z,20.03
2023-02-15T02:06:15.572Z,19.33
2023-02-15T02:08:43.759Z,20.43
2023-02-15T02:11:17.073Z,19.73
2023-02-15T02:13:45.290Z,19.70
2023-02-15T02:16:16.322Z,17.97
2023-02-15T02:18:49.512Z,18.73
2023-02-15T02:21:16.618Z,20.53
2023-02-15T02:23:49.535Z,18.77
2023-02-15T02:26:28.797Z,20.40
2023-02-15T02:29:08.216Z,19.07
2023-02-15T02:31:41.288Z,20.87
2023-02-15T02:34:26.789Z,19.37
2023-02-15T02:37:03.518Z,21.93
2023-02-15T02:39:47.802Z,19.73
2023-02-15T02:42:23.864Z,17.37
2023-02-15T02:45:02.248Z,20.20
2023-02-15T02:47:35.532Z,18.93
2023-02-15T02:50:05.088Z,20.40
2023-02-15T02:52:38.364Z,20.97
2023-02-15T02:55:07.559Z,21.77
2023-02-15T02:57:36.637Z,19.20
2023-02-15T03:00:05.108Z,20.27
2023-02-15T03:02:36.762Z,19.90
2023-02-15T03:05:07.118Z,18.70
2023-02-15T03:07:35.313Z,20.87
2023-02-15T03:10:03.479Z,21.97
2023-02-15T03:12:38.928Z,20.53
2023-02-15T03:15:06.129Z,20.70
2023-02-15T03:17:34.366Z,21.40
2023-02-15T03:20:04.781Z,20.17
2023-02-15T03:22:40.357Z,20.67
2023-02-15T03:25:33.812Z,21.23
2023-02-15T03:28:03.890Z,21.93
2023-02-15T03:30:31.902Z,21.13
2023-02-15T03:33:00.796Z,20.73
2023-02-15T03:35:33.277Z,21.70
2023-02-15T03:38:02.367Z,21.10
2023-02-15T03:40:50.081Z,21.70
2023-02-15T03:43:32.344Z,20.57
2023-02-15T03:46:02.923Z,20.13
2023-02-15T03:48:42.169Z,20.33
2023-02-15T03:51:35.264Z,20.17
2023-02-15T03:54:04.149Z,20.97
2023-02-15T03:56:31.626Z,19.57
2023-02-15T03:59:17.670Z,20.90
2023-02-15T04:01:59.214Z,21.87
2023-02-15T04:04:39.590Z,19.37
2023-02-15T04:07:08.340Z,20.90
2023-02-15T04:09:54.579Z,20.37
2023-02-15T04:12:22.069Z,21.57
2023-02-15T04:15:07.663Z,19.17
2023-02-15T04:17:34.795Z,19.90
2023-02-15T04:20:20.788Z,21.20
2023-02-15T04:23:06.767Z,22.97
2023-02-15T04:25:34.033Z,20.67
2023-02-15T04:28:02.238Z,21.20
2023-02-15T04:30:29.403Z,20.10
2023-02-15T04:32:58.097Z,20.70
2023-02-15T04:35:25.233Z,21.50
2023-02-15T04:37:52.391Z,20.53
2023-02-15T04:40:19.925Z,22.67
2023-02-15T04:42:49.935Z,22.27
2023-02-15T04:45:17.042Z,21.17
2023-02-15T04:47:44.399Z,21.03
2023-02-15T04:50:14.169Z,21.70
2023-02-15T04:52:41.449Z,22.53
2023-02-15T04:55:08.757Z,22.23
2023-02-15T04:57:35.983Z,21.43
2023-02-15T05:00:03.475Z,23.07
2023-02-15T05:02:30.587Z,22.57
2023-02-15T05:04:57.669Z,21.73
2023-02-15T05:07:24.853Z,22.80
2023-02-15T05:09:51.933Z,20.87
2023-02-15T05:12:19.251Z,22.40
2023-02-15T05:14:46.353Z,23.17
2023-02-15T05:17:13.442Z,22.57
2023-02-15T05:19:40.541Z,24.63
2023-02-15T05:22:07.635Z,22.27
2023-02-15T05:24:53.473Z,20.53
2023-02-15T05:27:39.153Z,21.80
2023-02-15T05:30:06.817Z,21.77
2023-02-15T05:32:34.121Z,22.00
2023-02-15T05:35:01.387Z,22.10
2023-02-15T05:37:28.483Z,22.33
2023-02-15T05:39:55.577Z,22.07
2023-02-15T05:42:22.673Z,23.23
2023-02-15T05:44:49.756Z,22.83
2023-02-15T05:47:16.849Z,22.23
2023-02-15T05:49:43.946Z,21.93
2023-02-15T05:52:13.090Z,23.33
2023-02-15T05:54:40.197Z,21.97
2023-02-15T05:57:07.348Z,21.57
2023-02-15T05:59:34.434Z,22.13
2023-02-15T06:02:01.605Z,23.20
2023-02-15T06:04:28.755Z,20.63
2023-02-15T06:06:55.860Z,22.33
2023-02-15T06:09:22.965Z,25.60
2023-02-15T06:11:50.265Z,22.50
2023-02-15T06:14:17.419Z,24.07
2023-02-15T06:16:44.586Z,20.87
2023-02-15T06:19:11.803Z,21.80
2023-02-15T06:21:38.906Z,20.70
2023-02-15T06:24:06.145Z,21.10
2023-02-15T06:26:33.714Z,22.27
2023-02-15T06:29:00.912Z,20.67
2023-02-15T06:31:28.113Z,20.50
2023-02-15T06:34:02.089Z,20.80
2023-02-15T06:36:32.835Z,22.33
2023-02-15T06:39:00.143Z,21.47
2023-02-15T06:41:27.289Z,21.80
2023-02-15T06:43:54.388Z,22.90
2023-02-15T06:46:21.586Z,22.93
2023-02-15T06:48:48.850Z,23.43
2023-02-15T06:51:16.023Z,24.20
2023-02-15T06:53:43.844Z,22.33
2023-02-15T06:56:11.954Z,22.17
2023-02-15T06:58:42.108Z,21.43
2023-02-15T07:01:09.908Z,23.23
2023-02-15T07:03:37.497Z,21.97
2023-02-15T07:06:09.171Z,20.50
2023-02-15T07:08:37.182Z,21.27
2023-02-15T07:11:23.378Z,21.77
2023-02-15T07:13:50.761Z,21.37
2023-02-15T07:16:17.925Z,22.10
2023-02-15T07:18:45.114Z,20.93
2023-02-15T07:21:12.345Z,23.37
2023-02-15T07:23:40.457Z,23.20
2023-02-15T07:26:08.014Z,20.37
2023-02-15T07:28:35.956Z,21.23
2023-02-15T07:31:06.421Z,21.07
2023-02-15T07:33:34.342Z,21.47
2023-02-15T07:36:03.215Z,20.47
2023-02-15T07:38:40.606Z,21.20
2023-02-15T07:41:08.981Z,21.27
2023-02-15T07:43:37.311Z,20.83
2023-02-15T07:46:05.550Z,20.47
2023-02-15T07:48:33.065Z,20.93
2023-02-15T07:51:00.629Z,21.13
2023-02-15T07:53:27.771Z,21.07
2023-02-15T07:55:55.873Z,20.87
2023-02-15T07:58:42.985Z,20.40
2023-02-15T08:01:10.291Z,20.17
2023-02-15T08:03:37.564Z,19.47
2023-02-15T08:06:04.940Z,19.90
2023-02-15T08:08:32.238Z,19.83
2023-02-15T08:11:26.365Z,20.23
2023-02-15T08:13:54.746Z,20.03
2023-02-15T08:16:32.282Z,18.10
2023-02-15T08:19:00.323Z,18.97
2023-02-15T08:21:28.972Z,19.83
2023-02-15T08:23:56.600Z,18.10
2023-02-15T08:26:24.792Z,18.90
2023-02-15T08:28:52.995Z,20.07
2023-02-15T08:31:20.742Z,19.87
2023-02-15T08:33:49.175Z,19.27
2023-02-15T08:36:18.152Z,19.50
2023-02-15T08:38:45.326Z,19.13
2023-02-15T08:41:17.117Z,18.07
2023-02-15T08:43:44.773Z,18.27
2023-02-15T08:46:12.670Z,18.90
2023-02-15T08:48:40.004Z,18.70
2023-02-15T08:51:08.007Z,19.13
2023-02-15T08:53:35.328Z,22.53
2023-02-15T08:56:02.537Z,16.47
2023-02-15T08:58:30.632Z,18.27
2023-02-15T09:00:57.953Z,18.83
2023-02-15T09:03:25.146Z,17.33
2023-02-15T09:05:52.283Z,17.07
2023-02-15T09:08:19.440Z,18.37
2023-02-15T09:10:47.501Z,18.17
2023-02-15T09:13:14.635Z,16.77
2023-02-15T09:15:42.651Z,17.47
2023-02-15T09:18:09.816Z,14.87
2023-02-15T09:20:37.477Z,16.73
2023-02-15T09:23:04.892Z,16.30
2023-02-15T09:25:31.993Z,15.70
2023-02-15T09:27:59.147Z,16.93
2023-02-15T09:30:26.457Z,15.63
2023-02-15T09:32:53.714Z,16.53
2023-02-15T09:35:20.863Z,18.30
2023-02-15T09:37:47.977Z,17.27
2023-02-15T09:40:17.444Z,16.63
2023-02-15T09:42:53.772Z,15.53
2023-02-15T09:45:25.457Z,15.43
2023-02-15T09:48:07.673Z,17.43
2023-02-15T09:50:50.383Z,16.57
2023-02-15T09:53:23.666Z,15.83
2023-02-15T09:56:00.044Z,16.90
2023-02-15T09:58:30.120Z,16.60
2023-02-15T10:01:36.107Z,16.57
2023-02-15T10:04:26.465Z,15.63
2023-02-15T10:07:02.726Z,16.93
2023-02-15T10:09:35.925Z,15.43
2023-02-15T10:12:12.480Z,15.90
2023-02-15T10:14:59.020Z,15.33
2023-02-15T10:17:26.862Z,15.53
2023-02-15T10:20:09.047Z,16.00
2023-02-15T10:22:49.787Z,15.00
2023-02-15T10:25:16.928Z,14.20
2023-02-15T10:27:50.950Z,14.93
2023-02-15T10:30:53.764Z,14.83
2023-02-15T10:33:24.537Z,14.90
2023-02-15T10:36:10.401Z,15.10
2023-02-15T10:38:37.560Z,15.20
2023-02-15T10:41:07.733Z,15.07
2023-02-15T10:43:43.187Z,14.60
2023-02-15T10:46:10.318Z,14.30
2023-02-15T10:48:52.178Z,15.40
2023-02-15T10:51:28.427Z,15.37
2023-02-15T10:54:14.634Z,14.90
2023-02-15T10:56:50.586Z,14.13
2023-02-15T10:59:20.820Z,13.93
2023-02-15T11:02:00.477Z,16.07
2023-02-15T11:04:36.556Z,14.07
2023-02-15T11:07:06.612Z,14.20
2023-02-15T11:09:45.655Z,13.77
2023-02-15T11:12:15.344Z,14.53
2023-02-15T11:14:54.138Z,13.93
2023-02-15T11:17:27.222Z,14.80
2023-02-15T11:20:05.499Z,14.60
2023-02-15T11:22:33.439Z,14.60
2023-02-15T11:25:02.549Z,15.57
2023-02-15T11:27:34.176Z,14.73
2023-02-15T11:30:04.345Z,13.93
2023-02-15T11:32:34.574Z,16.30
2023-02-15T11:35:04.974Z,13.70
2023-02-15T11:37:35.699Z,15.32
2023-02-15T11:40:04.937Z,14.48
2023-02-15T11:42:33.694Z,16.30
2023-02-15T11:45:13.014Z,14.23
2023-02-15T11:47:40.152Z,13.68
2023-02-15T11:50:08.322Z,14.63
2023-02-15T11:52:35.493Z,15.48
2023-02-15T11:55:02.846Z,13.57
2023-02-15T11:57:30.613Z,13.00
2023-02-15T12:00:02.080Z,14.35
2023-02-15T12:02:31.147Z,14.50
2023-02-15T12:05:10.962Z,13.43
2023-02-15T12:07:38.920Z,13.82
2023-02-15T12:10:08.158Z,14.55
2023-02-15T12:12:36.890Z,13.82
2023-02-15T12:15:07.988Z,13.68
2023-02-15T12:17:37.043Z,14.23
2023-02-15T12:20:24.415Z,12.55
2023-02-15T12:22:53.067Z,13.38
2023-02-15T12:25:30.296Z,12.85
2023-02-15T12:27:57.556Z,12.68
2023-02-15T12:30:33.454Z,14.60
2023-02-15T12:33:01.247Z,12.68
2023-02-15T12:35:32.683Z,12.73
2023-02-15T12:38:04.349Z,12.15
2023-02-15T12:40:32.100Z,11.88
2023-02-15T12:42:59.243Z,12.05
2023-02-15T12:45:29.488Z,11.85
2023-02-15T12:48:15.104Z,12.88
2023-02-15T12:50:43.396Z,13.88
2023-02-15T12:53:23.988Z,12.27
2023-02-15T12:56:02.246Z,11.85
2023-02-15T12:58:31.277Z,15.18
2023-02-15T13:01:09.840Z,12.35
2023-02-15T13:03:39.524Z,12.43
2023-02-15T13:06:09.499Z,12.75
2023-02-15T13:08:59.868Z,11.27
2023-02-15T13:11:34.898Z,12.02
2023-02-15T13:14:03.940Z,11.90
2023-02-15T13:16:36.048Z,12.65
2023-02-15T13:19:18.623Z,11.18
2023-02-15T13:21:48.814Z,11.57
2023-02-15T13:24:45.513Z,12.00
2023-02-15T13:27:17.180Z,11.65
2023-02-15T13:29:53.945Z,12.25
2023-02-15T13:32:26.573Z,11.95
2023-02-15T13:34:58.214Z,11.13
2023-02-15T13:37:31.051Z,11.80
2023-02-15T13:40:24.974Z,12.27
2023-02-15T13:43:41.559Z,12.40
2023-02-15T13:46:22.193Z,12.65
2023-02-15T13:49:10.807Z,12.45
2023-02-15T13:51:52.434Z,13.02
2023-02-15T13:54:30.034Z,12.45
2023-02-15T13:57:06.000Z,12.23
2023-02-15T13:59:57.070Z,13.02
2023-02-15T14:03:01.028Z,12.80
2023-02-15T14:05:48.332Z,13.27
2023-02-15T14:08:27.770Z,11.43
2023-02-15T14:11:04.422Z,13.02
2023-02-15T14:14:01.840Z,15.35
2023-02-15T14:17:06.293Z,13.38
2023-02-15T14:19:51.028Z,13.13
2023-02-15T14:22:39.063Z,13.30
2023-02-15T14:25:18.325Z,12.32
2023-02-15T14:27:55.122Z,11.45
2023-02-15T14:30:27.573Z,12.52
2023-02-15T14:32:59.265Z,12.02
2023-02-15T14:35:29.157Z,12.38
2023-02-15T14:38:14.154Z,12.80
2023-02-15T14:41:02.846Z,14.10
2023-02-15T14:43:59.495Z,11.50
2023-02-15T14:46:35.225Z,11.95
2023-02-15T14:49:17.676Z,12.00
2023-02-15T14:51:44.655Z,12.90
2023-02-15T14:54:33.988Z,11.73
2023-02-15T14:57:03.815Z,13.23
2023-02-15T14:59:39.940Z,12.05
2023-02-15T15:02:09.711Z,14.45
2023-02-15T15:04:57.909Z,12.10
2023-02-15T15:07:27.772Z,12.90
2023-02-15T15:10:02.686Z,13.35
2023-02-15T15:12:35.212Z,12.98
2023-02-15T15:15:02.271Z,13.60
2023-02-15T15:17:39.126Z,13.55
2023-02-15T15:20:35.003Z,13.48
2023-02-15T15:23:16.725Z,13.35
2023-02-15T15:25:45.807Z,12.00
2023-02-15T15:28:35.646Z,13.32
2023-02-15T15:31:08.586Z,13.57
2023-02-15T15:33:57.287Z,12.52
2023-02-15T15:36:42.851Z,13.80
2023-02-15T15:39:37.336Z,14.57
2023-02-15T15:42:22.612Z,13.25
2023-02-15T15:45:11.013Z,13.82
2023-02-15T15:47:38.900Z,13.63
2023-02-15T15:50:13.361Z,13.25
2023-02-15T15:52:41.965Z,12.75
2023-02-15T15:55:16.991Z,12.93
2023-02-15T15:57:45.933Z,12.73
2023-02-15T16:00:28.344Z,14.75
2023-02-15T16:02:57.062Z,16.35
2023-02-15T16:05:24.779Z,14.65
2023-02-15T16:07:51.999Z,14.48
2023-02-15T16:10:22.023Z,14.27
2023-02-15T16:12:50.936Z,14.07
2023-02-15T16:15:18.200Z,12.70
2023-02-15T16:17:47.074Z,13.57
2023-02-15T16:20:19.563Z,12.27
2023-02-15T16:22:51.364Z,12.87
2023-02-15T16:25:33.112Z,14.47
2023-02-15T16:28:07.520Z,13.30
2023-02-15T16:30:35.825Z,15.77
2023-02-15T16:33:10.546Z,14.10
2023-02-15T16:35:38.838Z,14.13
2023-02-15T16:38:06.642Z,13.63
2023-02-15T16:40:39.679Z,15.57
2023-02-15T16:43:08.579Z,13.63
2023-02-15T16:45:38.770Z,14.87
2023-02-15T16:48:09.427Z,15.57
2023-02-15T16:50:38.621Z,14.57
2023-02-15T16:53:08.275Z,14.47
2023-02-15T16:55:44.338Z,14.23
2023-02-15T16:58:17.713Z,13.40
2023-02-15T17:00:45.763Z,14.60
2023-02-15T17:03:15.526Z,16.43
2023-02-15T17:05:55.043Z,16.53
2023-02-15T17:08:44.845Z,14.37
2023-02-15T17:11:20.221Z,14.17
2023-02-15T17:14:05.851Z,16.33
2023-02-15T17:16:50.128Z,15.30
2023-02-15T17:19:17.237Z,15.03
2023-02-15T17:22:02.393Z,14.37
2023-02-15T17:24:32.279Z,14.50
2023-02-15T17:27:31.983Z,15.67
2023-02-15T17:30:01.359Z,16.93
2023-02-15T17:32:30.077Z,15.37
2023-02-15T17:34:57.301Z,14.60
2023-02-15T17:37:44.120Z,14.90
2023-02-15T17:40:20.522Z,14.27
2023-02-15T17:42:47.766Z,13.60
2023-02-15T17:45:15.595Z,15.87
2023-02-15T17:47:43.278Z,14.37
2023-02-15T17:50:17.353Z,16.67
2023-02-15T17:52:44.562Z,15.63
2023-02-15T17:55:34.806Z,13.83
2023-02-15T17:58:02.641Z,14.00
2023-02-15T18:00:49.768Z,14.47
2023-02-15T18:03:35.891Z,12.90
2023-02-15T18:06:22.204Z,14.33
2023-02-15T18:09:09.442Z,13.73
2023-02-15T18:11:38.120Z,14.93
2023-02-15T18:14:06.120Z,13.57
2023-02-15T18:16:38.630Z,15.33
2023-02-15T18:19:06.249Z,14.07
2023-02-15T18:21:34.211Z,14.37
2023-02-15T18:24:01.476Z,14.37
2023-02-15T18:26:29.224Z,13.20
2023-02-15T18:28:56.421Z,15.17
2023-02-15T18:31:24.722Z,13.27
2023-02-15T18:33:54.843Z,14.23
2023-02-15T18:36:23.814Z,13.57
2023-02-15T18:38:51.023Z,13.70
2023-02-15T18:41:19.583Z,13.60
2023-02-15T18:43:46.963Z,14.40
2023-02-15T18:46:14.140Z,14.70
2023-02-15T18:48:41.361Z,14.83
2023-02-15T18:51:17.325Z,14.53
2023-02-15T18:53:44.663Z,14.43
2023-02-15T18:56:18.816Z,14.13
2023-02-15T18:58:49.307Z,15.67
2023-02-15T19:01:17.829Z,14.00
2023-02-15T19:03:46.335Z,14.30
2023-02-15T19:06:13.869Z,13.97
2023-02-15T19:08:41.074Z,14.30
2023-02-15T19:11:12.253Z,14.33
2023-02-15T19:13:39.382Z,15.10
2023-02-15T19:16:06.564Z,14.43
2023-02-15T19:18:33.711Z,14.37
2023-02-15T19:21:00.837Z,14.13
2023-02-15T19:23:27.969Z,13.67
2023-02-15T19:25:55.388Z,14.83
2023-02-15T19:28:28.919Z,16.03
2023-02-15T19:30:56.059Z,14.80
2023-02-15T19:33:23.805Z,14.37
2023-02-15T19:35:54.109Z,14.43
2023-02-15T19:38:23.339Z,15.50
2023-02-15T19:40:50.591Z,15.33
2023-02-15T19:43:26.012Z,14.90
2023-02-15T19:45:53.717Z,14.60
2023-02-15T19:48:20.907Z,15.20
2023-02-15T19:50:48.405Z,13.30
2023-02-15T19:53:23.272Z,14.77
2023-02-15T19:55:51.061Z,13.60
2023-02-15T19:58:19.232Z,15.90
2023-02-15T20:00:47.171Z,14.87
2023-02-15T20:03:14.387Z,15.23
2023-02-15T20:05:42.350Z,15.47
2023-02-15T20:08:15.317Z,14.33
2023-02-15T20:10:42.644Z,13.70
2023-02-15T20:13:13.835Z,14.87
2023-02-15T20:15:41.201Z,14.00
2023-02-15T20:18:08.569Z,15.30
2023-02-15T20:20:40.200Z,15.97
2023-02-15T20:23:07.769Z,14.87
2023-02-15T20:25:34.924Z,15.97
2023-02-15T20:28:02.229Z,15.03
2023-02-15T20:30:30.818Z,15.13
2023-02-15T20:32:58.363Z,14.60
2023-02-15T20:35:28.578Z,14.50
2023-02-15T20:37:57.323Z,13.87
2023-02-15T20:40:29.265Z,15.50
2023-02-15T20:42:56.406Z,14.67
2023-02-15T20:45:24.869Z,16.37
2023-02-15T20:47:52.801Z,14.77
2023-02-15T20:50:19.932Z,14.77
2023-02-15T20:52:48.015Z,15.17
2023-02-15T20:55:16.710Z,15.27
2023-02-15T20:57:43.928Z,14.27
2023-02-15T21:00:15.076Z,15.93
2023-02-15T21:02:42.467Z,13.70
2023-02-15T21:05:19.924Z,14.83
2023-02-15T21:07:47.625Z,15.37
2023-02-15T21:10:15.800Z,15.50
2023-02-15T21:12:42.844Z,16.13
2023-02-15T21:15:48.751Z,15.33
2023-02-15T21:18:35.340Z,16.20
2023-02-15T21:21:05.322Z,14.33
2023-02-15T21:23:43.698Z,14.63
2023-02-15T21:26:21.685Z,15.67
2023-02-15T21:28:50.551Z,15.07
2023-02-15T21:31:18.937Z,14.33
2023-02-15T21:33:46.312Z,15.83
2023-02-15T21:36:23.330Z,16.33
2023-02-15T21:38:51.181Z,16.93
2023-02-15T21:41:38.115Z,15.80
2023-02-15T21:44:34.064Z,15.20
2023-02-15T21:47:19.721Z,15.73
2023-02-15T21:49:46.883Z,15.30
2023-02-15T21:52:15.081Z,15.50
2023-02-15T21:54:42.245Z,17.37
2023-02-15T21:57:16.318Z,15.07
2023-02-15T21:59:44.145Z,16.33
2023-02-15T22:02:24.035Z,18.65
2023-02-15T22:04:51.141Z,16.33
2023-02-15T22:07:21.329Z,18.27
2023-02-15T22:09:48.559Z,16.00
2023-02-15T22:12:17.543Z,16.17
2023-02-15T22:14:46.485Z,17.47
2023-02-15T22:17:20.668Z,16.10
2023-02-15T22:19:48.963Z,16.00
2023-02-15T22:22:16.882Z,15.03
2023-02-15T22:24:45.198Z,15.87
2023-02-15T22:27:19.368Z,15.63
2023-02-15T22:29:46.600Z,15.43
2023-02-15T22:32:20.953Z,16.17
2023-02-15T22:34:48.137Z,16.23
2023-02-15T22:37:15.280Z,16.70
2023-02-15T22:39:42.416Z,17.97
2023-02-15T22:42:21.582Z,16.27
2023-02-15T22:44:48.824Z,17.63
2023-02-15T22:47:20.781Z,17.23
2023-02-15T22:49:47.986Z,17.80
2023-02-15T22:52:15.358Z,17.70
2023-02-15T22:54:42.520Z,18.17
2023-02-15T22:57:16.147Z,16.77
2023-02-15T22:59:43.315Z,17.93
2023-02-15T23:02:12.918Z,17.40
2023-02-15T23:04:40.057Z,16.60
2023-02-15T23:07:13.019Z,15.93
2023-02-15T23:09:40.173Z,18.23
2023-02-15T23:12:21.399Z,17.07
2023-02-15T23:14:48.493Z,16.50
2023-02-15T23:17:15.676Z,17.77
2023-02-15T23:19:42.768Z,17.33
2023-02-15T23:22:16.738Z,18.07
2023-02-15T23:24:44.690Z,16.70
2023-02-15T23:27:35.169Z,17.97
2023-02-15T23:30:06.624Z,18.00
2023-02-15T23:32:33.951Z,17.23
2023-02-15T23:35:00.700Z,16.17
2023-02-15T23:37:27.938Z,18.63
2023-02-15T23:40:13.892Z,16.77
2023-02-15T23:42:41.088Z,17.20
2023-02-15T23:45:19.021Z,17.07
2023-02-15T23:48:05.237Z,16.90
2023-02-15T23:50:32.330Z,18.23
2023-02-15T23:52:59.554Z,17.23
2023-02-15T23:55:35.278Z,17.23
2023-02-15T23:58:03.064Z,18.70
